Time;durP1;ratioP1;P1;durP2;ratioP2;P2;SDS_P1;SDS_P2;PMS_P1;PMS_P2;Temp;Humidity;BMP_temperature;BMP_pressure;BME280_temperature;BME280_humidity;BME280_pressure;Samples;Min_cycle;Max_cycle;Signal;HPM_P1;HPM_P2
2023/12/31 00:02:10;;;;;;;7.13;6.43;;;;;;;;;;5097851;28;20492;-80
2023/12/31 00:04:36;;;;;;;7.00;6.33;;;;;;;;;;5098212;28;20462;-80
2023/12/31 00:07:02;;;;;;;7.72;6.30;;;;;;;;;;5097724;28;20370;-80
2023/12/31 00:09:28;;;;;;;6.80;6.18;;;;;;;;;;5097951;28;20373;-80
2023/12/31 00:11:54;;;;;;;5.82;5.22;;;;;;;;;;5097719;28;20429;-80
2023/12/31 00:14:20;;;;;;;6.43;5.82;;;;;;;;;;5097371;28;20950;-80
2023/12/31 00:16:46;;;;;;;7.82;6.15;;;;;;;;;;5095773;28;20423;-80
2023/12/31 00:19:12;;;;;;;6.60;5.93;;;;;;;;;;5098855;28;20875;-80
2023/12/31 00:21:41;;;;;;;7.03;6.38;;;;;;;;;;5116974;28;20419;-80
2023/12/31 00:24:07;;;;;;;7.63;6.05;;;;;;;;;;5118507;28;20993;-80
2023/12/31 00:26:33;;;;;;;6.88;6.28;;;;;;;;;;5118031;28;20846;-81
2023/12/31 00:28:59;;;;;;;6.63;6.00;;;;;;;;;;5119564;28;20375;-80
2023/12/31 00:31:25;;;;;;;6.40;5.80;;;;;;;;;;5117800;28;20790;-80
2023/12/31 00:33:56;;;;;;;6.40;5.80;;;;;;;;;;5118699;28;20376;-80
2023/12/31 00:36:23;;;;;;;6.55;5.80;;;;;;;;;;5117955;28;20841;-80
2023/12/31 00:38:49;;;;;;;6.43;5.70;;;;;;;;;;5118002;28;20834;-81
2023/12/31 00:41:15;;;;;;;6.63;6.03;;;;;;;;;;5118573;28;20380;-80
2023/12/31 00:43:41;;;;;;;6.95;6.35;;;;;;;;;;5103277;28;20815;-81
2023/12/31 00:46:07;;;;;;;6.72;6.03;;;;;;;;;;5099188;28;20378;-81
2023/12/31 00:48:33;;;;;;;6.20;5.70;;;;;;;;;;5098534;28;20385;-82
2023/12/31 00:51:02;;;;;;;5.82;5.32;;;;;;;;;;5080053;28;20410;-80
2023/12/31 00:53:29;;;;;;;5.78;5.28;;;;;;;;;;5097444;28;20385;-80
2023/12/31 00:55:54;;;;;;;5.50;5.00;;;;;;;;;;5097460;28;20415;-82
2023/12/31 00:58:20;;;;;;;5.63;5.13;;;;;;;;;;5097488;28;20386;-81
2023/12/31 01:00:47;;;;;;;5.57;5.07;;;;;;;;;;5097590;28;20844;-81
2023/12/31 01:03:12;;;;;;;5.73;5.23;;;;;;;;;;5097152;28;20432;-81
2023/12/31 01:05:38;;;;;;;5.38;4.88;;;;;;;;;;5097256;28;20408;-81
2023/12/31 01:08:04;;;;;;;5.28;4.78;;;;;;;;;;5097630;28;20382;-80
2023/12/31 01:10:30;;;;;;;5.40;4.90;;;;;;;;;;5097715;28;20366;-81
2023/12/31 01:12:56;;;;;;;5.10;4.70;;;;;;;;;;5097138;28;20382;-81
2023/12/31 01:15:22;;;;;;;5.47;4.97;;;;;;;;;;5097216;28;20382;-80
2023/12/31 01:17:49;;;;;;;5.82;5.28;;;;;;;;;;5097037;28;20471;-81
2023/12/31 01:20:15;;;;;;;5.50;5.00;;;;;;;;;;5097765;28;20927;-80
2023/12/31 01:22:41;;;;;;;6.05;5.55;;;;;;;;;;5097099;28;20410;-81
2023/12/31 01:25:07;;;;;;;5.85;5.35;;;;;;;;;;5097453;28;20374;-82
2023/12/31 01:27:33;;;;;;;5.90;5.30;;;;;;;;;;5095982;28;20405;-80
2023/12/31 01:29:59;;;;;;;5.53;5.03;;;;;;;;;;5095249;28;20390;-80
2023/12/31 01:32:25;;;;;;;5.35;4.80;;;;;;;;;;5094900;28;20755;-80
2023/12/31 01:34:52;;;;;;;5.50;5.00;;;;;;;;;;5096611;28;20378;-81
2023/12/31 01:37:18;;;;;;;6.15;4.97;;;;;;;;;;5097172;28;20423;-80
2023/12/31 01:39:44;;;;;;;5.57;5.07;;;;;;;;;;5096185;28;20480;-80
2023/12/31 01:42:10;;;;;;;4.90;4.50;;;;;;;;;;5096373;28;20394;-80
2023/12/31 01:44:36;;;;;;;5.43;4.80;;;;;;;;;;5096575;28;20392;-80
2023/12/31 01:47:03;;;;;;;5.20;4.55;;;;;;;;;;5095794;28;20464;-80
2023/12/31 01:49:30;;;;;;;5.95;5.32;;;;;;;;;;5096428;28;20382;-80
2023/12/31 01:51:56;;;;;;;7.40;5.38;;;;;;;;;;5096288;28;20385;-81
2023/12/31 01:54:22;;;;;;;5.35;4.85;;;;;;;;;;5096889;28;20374;-80
2023/12/31 01:56:50;;;;;;;5.78;4.90;;;;;;;;;;5096359;28;20385;-81
2023/12/31 01:59:16;;;;;;;5.22;4.82;;;;;;;;;;5096598;28;20386;-80
2023/12/31 02:01:43;;;;;;;5.95;5.35;;;;;;;;;;5097181;28;20378;-80
2023/12/31 02:04:09;;;;;;;5.70;5.13;;;;;;;;;;5097943;28;20393;-81
2023/12/31 02:06:35;;;;;;;6.20;5.33;;;;;;;;;;5097852;28;20831;-81
2023/12/31 02:09:02;;;;;;;5.60;5.10;;;;;;;;;;5096919;28;20378;-80
2023/12/31 02:11:28;;;;;;;5.53;5.03;;;;;;;;;;5097592;28;20366;-81
2023/12/31 02:13:54;;;;;;;5.53;5.03;;;;;;;;;;5097468;28;20466;-80
2023/12/31 02:16:21;;;;;;;5.95;5.35;;;;;;;;;;5097549;28;20374;-80
2023/12/31 02:18:47;;;;;;;5.78;5.28;;;;;;;;;;5097415;28;20415;-81
2023/12/31 02:21:14;;;;;;;5.60;5.10;;;;;;;;;;5097519;28;20505;-81
2023/12/31 02:23:40;;;;;;;5.65;4.95;;;;;;;;;;5101458;28;20419;-81
2023/12/31 02:26:13;;;;;;;5.65;5.05;;;;;;;;;;5117820;28;20378;-80
2023/12/31 02:28:39;;;;;;;4.97;4.57;;;;;;;;;;5117280;28;20439;-81
2023/12/31 02:31:05;;;;;;;5.63;5.13;;;;;;;;;;5116968;28;20790;-80
2023/12/31 02:33:31;;;;;;;5.03;4.63;;;;;;;;;;5117887;28;20404;-80
2023/12/31 02:35:57;;;;;;;5.18;4.78;;;;;;;;;;5117468;28;20410;-81
2023/12/31 02:38:23;;;;;;;5.10;4.60;;;;;;;;;;5118606;28;20394;-81
2023/12/31 02:40:49;;;;;;;5.40;4.90;;;;;;;;;;5121858;28;20463;-81
2023/12/31 02:43:16;;;;;;;5.68;5.18;;;;;;;;;;5123055;28;20442;-80
2023/12/31 02:45:42;;;;;;;5.32;4.82;;;;;;;;;;5132092;28;20368;-80
2023/12/31 02:48:08;;;;;;;5.60;5.10;;;;;;;;;;5112010;28;20388;-81
2023/12/31 02:50:34;;;;;;;5.43;5.03;;;;;;;;;;5116530;28;20374;-80
2023/12/31 02:53:00;;;;;;;5.07;4.68;;;;;;;;;;5110604;28;20381;-81
2023/12/31 02:55:26;;;;;;;5.20;4.80;;;;;;;;;;5106011;28;20381;-81
2023/12/31 02:57:52;;;;;;;5.27;4.77;;;;;;;;;;5100784;28;20473;-82
2023/12/31 03:00:18;;;;;;;5.63;5.13;;;;;;;;;;5100405;28;20386;-81
2023/12/31 03:02:44;;;;;;;5.30;4.90;;;;;;;;;;5100543;28;20414;-81
2023/12/31 03:05:12;;;;;;;5.40;4.90;;;;;;;;;;5101042;28;20377;-81
2023/12/31 03:07:38;;;;;;;5.32;4.82;;;;;;;;;;5100367;28;20932;-80
2023/12/31 03:10:04;;;;;;;5.93;5.10;;;;;;;;;;5100496;28;20468;-81
2023/12/31 03:12:30;;;;;;;5.63;5.10;;;;;;;;;;5100749;28;20434;-80
2023/12/31 03:14:56;;;;;;;5.43;4.93;;;;;;;;;;5100352;28;20816;-80
2023/12/31 03:17:23;;;;;;;5.28;4.78;;;;;;;;;;5100007;28;20465;-80
2023/12/31 03:19:49;;;;;;;5.43;4.93;;;;;;;;;;5099719;28;20449;-81
2023/12/31 03:22:15;;;;;;;5.05;4.65;;;;;;;;;;5080164;28;21009;-80
2023/12/31 03:24:44;;;;;;;5.00;4.60;;;;;;;;;;5098666;28;20397;-79
2023/12/31 03:27:11;;;;;;;5.00;4.60;;;;;;;;;;5097028;28;20425;-80
2023/12/31 03:29:37;;;;;;;5.13;4.72;;;;;;;;;;5097330;28;20374;-79
2023/12/31 03:32:03;;;;;;;5.03;4.63;;;;;;;;;;5098060;28;20487;-79
2023/12/31 03:34:29;;;;;;;5.28;4.70;;;;;;;;;;5096990;28;20433;-80
2023/12/31 03:36:55;;;;;;;5.53;5.00;;;;;;;;;;5097549;28;20398;-81
2023/12/31 03:39:22;;;;;;;5.18;4.78;;;;;;;;;;5096975;28;20447;-79
2023/12/31 03:41:48;;;;;;;5.07;4.68;;;;;;;;;;5097231;28;20373;-79
2023/12/31 03:44:14;;;;;;;5.60;5.10;;;;;;;;;;5097176;28;20386;-80
2023/12/31 03:46:42;;;;;;;5.30;4.82;;;;;;;;;;5098071;28;20392;-79
2023/12/31 03:49:08;;;;;;;5.43;4.90;;;;;;;;;;5097346;28;20378;-79
2023/12/31 03:51:34;;;;;;;5.57;5.07;;;;;;;;;;5096457;28;20379;-79
2023/12/31 03:54:00;;;;;;;5.23;4.83;;;;;;;;;;5078950;28;20889;-79
2023/12/31 03:56:26;;;;;;;5.20;4.80;;;;;;;;;;5098710;28;20386;-80
2023/12/31 03:58:52;;;;;;;5.22;4.82;;;;;;;;;;5098779;28;20374;-80
2023/12/31 04:01:18;;;;;;;6.00;5.40;;;;;;;;;;5097948;28;20898;-80
2023/12/31 04:03:44;;;;;;;4.93;4.53;;;;;;;;;;5098487;28;20408;-80
2023/12/31 04:06:10;;;;;;;5.45;4.95;;;;;;;;;;5098834;28;20369;-81
2023/12/31 04:08:37;;;;;;;5.30;4.82;;;;;;;;;;5098994;28;20716;-79
2023/12/31 04:11:03;;;;;;;5.70;5.20;;;;;;;;;;5099276;28;20709;-80
2023/12/31 04:13:29;;;;;;;5.72;5.22;;;;;;;;;;5098067;28;20445;-81
2023/12/31 04:15:55;;;;;;;5.68;5.18;;;;;;;;;;5099028;28;20431;-80
2023/12/31 04:18:21;;;;;;;5.30;4.80;;;;;;;;;;5110750;28;20368;-80
2023/12/31 04:20:47;;;;;;;5.75;5.25;;;;;;;;;;5119680;28;20722;-80
2023/12/31 04:23:14;;;;;;;6.60;5.88;;;;;;;;;;5120686;28;20420;-81
2023/12/31 04:25:40;;;;;;;6.05;5.55;;;;;;;;;;5119002;28;20372;-80
2023/12/31 04:28:06;;;;;;;5.60;5.10;;;;;;;;;;5119044;28;20378;-80
2023/12/31 04:30:32;;;;;;;5.78;5.30;;;;;;;;;;5118802;28;20722;-79
2023/12/31 04:32:58;;;;;;;5.43;5.03;;;;;;;;;;5118435;28;20380;-80
2023/12/31 04:35:24;;;;;;;6.10;5.20;;;;;;;;;;5103153;28;20394;-79
2023/12/31 04:37:50;;;;;;;5.70;5.20;;;;;;;;;;5106610;28;20369;-79
2023/12/31 04:40:16;;;;;;;5.28;4.88;;;;;;;;;;5115505;28;20781;-80
2023/12/31 04:42:42;;;;;;;5.55;5.05;;;;;;;;;;5100263;28;20404;-80
2023/12/31 04:45:09;;;;;;;5.82;5.22;;;;;;;;;;5118833;28;20369;-80
2023/12/31 04:47:36;;;;;;;5.35;4.90;;;;;;;;;;5119425;28;20376;-80
2023/12/31 04:50:02;;;;;;;6.28;5.38;;;;;;;;;;5115325;28;20368;-80
2023/12/31 04:52:28;;;;;;;5.13;4.68;;;;;;;;;;5118387;28;20464;-80
2023/12/31 04:54:54;;;;;;;8.23;5.50;;;;;;;;;;5119024;28;20376;-81
2023/12/31 04:57:20;;;;;;;6.43;5.82;;;;;;;;;;5118166;28;20500;-81
2023/12/31 04:59:46;;;;;;;6.47;5.88;;;;;;;;;;5119423;28;20391;-80
2023/12/31 05:02:12;;;;;;;6.90;6.30;;;;;;;;;;5118039;28;20415;-80
2023/12/31 05:04:40;;;;;;;8.13;7.33;;;;;;;;;;5119551;28;20471;-81
2023/12/31 05:07:11;;;;;;;8.63;7.82;;;;;;;;;;5119477;28;20376;-81
2023/12/31 05:09:37;;;;;;;8.90;8.20;;;;;;;;;;5119084;28;20443;-81
2023/12/31 05:12:03;;;;;;;7.53;6.93;;;;;;;;;;5119465;28;20372;-81
2023/12/31 05:14:29;;;;;;;8.07;7.35;;;;;;;;;;5119036;28;20364;-80
2023/12/31 05:16:55;;;;;;;7.47;6.75;;;;;;;;;;5116880;28;20368;-80
2023/12/31 05:19:21;;;;;;;8.13;7.43;;;;;;;;;;5118096;28;20372;-80
2023/12/31 05:21:47;;;;;;;7.60;6.90;;;;;;;;;;5117443;28;20407;-81
2023/12/31 05:24:13;;;;;;;7.72;7.03;;;;;;;;;;5117331;28;20389;-79
2023/12/31 05:26:39;;;;;;;7.32;6.72;;;;;;;;;;5116789;28;20752;-80
2023/12/31 05:29:05;;;;;;;7.20;6.50;;;;;;;;;;5116244;28;20365;-80
2023/12/31 05:31:30;;;;;;;7.80;7.10;;;;;;;;;;5115950;28;20365;-80
2023/12/31 05:33:57;;;;;;;7.18;6.57;;;;;;;;;;5116031;28;20412;-80
2023/12/31 05:36:23;;;;;;;7.25;6.63;;;;;;;;;;5116280;28;20368;-80
2023/12/31 05:38:49;;;;;;;7.00;6.40;;;;;;;;;;5115993;28;20376;-79
2023/12/31 05:41:18;;;;;;;7.37;6.67;;;;;;;;;;5116144;28;20400;-79
2023/12/31 05:43:44;;;;;;;7.45;6.80;;;;;;;;;;5115682;28;20444;-79
2023/12/31 05:46:10;;;;;;;6.80;6.20;;;;;;;;;;5116494;28;20368;-80
2023/12/31 05:48:36;;;;;;;7.40;6.75;;;;;;;;;;5117163;28;20448;-80
2023/12/31 05:51:02;;;;;;;7.25;6.65;;;;;;;;;;5119313;28;20408;-81
2023/12/31 05:53:28;;;;;;;7.25;6.55;;;;;;;;;;5124378;28;20387;-80
2023/12/31 05:55:54;;;;;;;7.50;6.80;;;;;;;;;;5125930;28;20388;-80
2023/12/31 05:58:20;;;;;;;7.00;6.40;;;;;;;;;;5126254;28;20405;-80
2023/12/31 06:00:46;;;;;;;7.30;6.70;;;;;;;;;;5125071;28;20471;-80
2023/12/31 06:03:12;;;;;;;7.10;6.50;;;;;;;;;;5119880;28;20885;-81
2023/12/31 06:05:38;;;;;;;7.53;6.82;;;;;;;;;;5120140;28;20428;-81
2023/12/31 06:08:04;;;;;;;7.95;7.25;;;;;;;;;;5120575;28;20868;-82
2023/12/31 06:10:30;;;;;;;7.40;6.80;;;;;;;;;;5119034;28;20377;-80
2023/12/31 06:12:56;;;;;;;7.15;6.45;;;;;;;;;;5118747;28;20885;-82
2023/12/31 06:15:22;;;;;;;6.93;6.23;;;;;;;;;;5119238;28;20380;-82
2023/12/31 06:17:48;;;;;;;6.40;5.80;;;;;;;;;;5119037;28;20384;-81
2023/12/31 06:20:14;;;;;;;6.93;6.27;;;;;;;;;;5119156;28;20380;-81
2023/12/31 06:22:40;;;;;;;6.93;6.30;;;;;;;;;;5117980;28;20775;-81
2023/12/31 06:25:08;;;;;;;7.47;6.78;;;;;;;;;;5117760;28;20468;-80
2023/12/31 06:27:34;;;;;;;7.22;6.53;;;;;;;;;;5119094;28;20397;-80
2023/12/31 06:30:00;;;;;;;6.63;6.13;;;;;;;;;;5119074;28;20388;-80
2023/12/31 06:32:26;;;;;;;7.63;7.03;;;;;;;;;;5119227;28;20484;-81
2023/12/31 06:34:52;;;;;;;7.90;7.20;;;;;;;;;;5119087;28;20508;-81
2023/12/31 06:37:18;;;;;;;7.80;7.10;;;;;;;;;;5119497;28;20419;-81
2023/12/31 06:39:44;;;;;;;10.60;9.40;;;;;;;;;;5119220;28;20730;-81
2023/12/31 06:42:10;;;;;;;7.97;7.03;;;;;;;;;;5118880;28;20376;-81
2023/12/31 06:44:36;;;;;;;9.38;8.48;;;;;;;;;;5119437;28;20380;-81
2023/12/31 06:47:02;;;;;;;7.85;7.10;;;;;;;;;;5110443;28;20438;-80
2023/12/31 06:49:28;;;;;;;8.23;7.53;;;;;;;;;;5097935;28;20824;-81
2023/12/31 06:51:54;;;;;;;9.75;8.85;;;;;;;;;;5097921;28;20380;-81
2023/12/31 06:54:20;;;;;;;9.00;8.20;;;;;;;;;;5097596;28;20406;-79
2023/12/31 06:56:46;;;;;;;9.75;8.85;;;;;;;;;;5097172;28;20463;-81
2023/12/31 06:59:13;;;;;;;9.83;8.93;;;;;;;;;;5097487;28;20370;-80
2023/12/31 07:01:39;;;;;;;8.63;7.82;;;;;;;;;;5097000;28;20427;-81
2023/12/31 07:04:05;;;;;;;8.80;8.00;;;;;;;;;;5096796;28;20493;-80
2023/12/31 07:06:31;;;;;;;8.48;7.78;;;;;;;;;;5096674;28;20816;-79
2023/12/31 07:08:57;;;;;;;9.30;8.47;;;;;;;;;;5096777;28;20674;-80
2023/12/31 07:11:23;;;;;;;7.93;7.22;;;;;;;;;;5096068;28;20413;-80
2023/12/31 07:13:49;;;;;;;7.67;6.97;;;;;;;;;;5096529;28;20461;-81
2023/12/31 07:16:15;;;;;;;9.05;8.25;;;;;;;;;;5096851;28;20420;-80
2023/12/31 07:18:42;;;;;;;9.25;8.38;;;;;;;;;;5100148;28;20382;-80
2023/12/31 07:21:08;;;;;;;8.57;7.80;;;;;;;;;;5099208;28;20856;-79
2023/12/31 07:23:35;;;;;;;8.07;7.38;;;;;;;;;;5099334;28;20501;-82
2023/12/31 07:26:01;;;;;;;7.85;7.20;;;;;;;;;;5081173;28;20514;-80
2023/12/31 07:28:27;;;;;;;9.27;8.38;;;;;;;;;;5101917;28;20374;-80
2023/12/31 07:30:53;;;;;;;8.70;7.90;;;;;;;;;;5103049;28;20382;-80
2023/12/31 07:33:19;;;;;;;7.95;7.25;;;;;;;;;;5102723;28;20435;-79
2023/12/31 07:35:45;;;;;;;7.63;7.03;;;;;;;;;;5102522;28;20427;-80
2023/12/31 07:38:11;;;;;;;7.72;7.03;;;;;;;;;;5102296;28;20382;-80
2023/12/31 07:40:37;;;;;;;8.20;7.50;;;;;;;;;;5101952;28;20382;-81
2023/12/31 07:43:03;;;;;;;8.23;7.53;;;;;;;;;;5084461;28;20605;-81
2023/12/31 07:45:29;;;;;;;7.80;7.13;;;;;;;;;;5081946;28;20491;-80
2023/12/31 07:47:55;;;;;;;7.15;6.45;;;;;;;;;;5098784;28;20471;-80
2023/12/31 07:50:21;;;;;;;7.38;6.68;;;;;;;;;;5099278;28;20409;-79
2023/12/31 07:52:47;;;;;;;8.05;7.25;;;;;;;;;;5100909;28;20378;-80
2023/12/31 07:55:13;;;;;;;7.60;6.90;;;;;;;;;;5100791;28;20416;-80
2023/12/31 07:57:39;;;;;;;8.18;7.47;;;;;;;;;;5101118;28;20847;-80
2023/12/31 08:00:06;;;;;;;8.27;7.57;;;;;;;;;;5101439;28;20386;-79
2023/12/31 08:02:32;;;;;;;8.05;7.35;;;;;;;;;;5099565;28;20401;-80
2023/12/31 08:04:58;;;;;;;8.52;7.78;;;;;;;;;;5100275;28;20374;-80
2023/12/31 08:07:24;;;;;;;8.63;7.93;;;;;;;;;;5100555;28;20386;-79
2023/12/31 08:09:50;;;;;;;8.57;7.83;;;;;;;;;;5101123;28;20378;-80
2023/12/31 08:12:16;;;;;;;8.98;8.13;;;;;;;;;;5103748;28;20928;-81
2023/12/31 08:14:42;;;;;;;9.38;8.55;;;;;;;;;;5102971;28;20374;-80
2023/12/31 08:17:08;;;;;;;10.27;9.38;;;;;;;;;;5102547;28;20681;-81
2023/12/31 08:19:34;;;;;;;13.93;12.43;;;;;;;;;;5103385;28;20836;-80
2023/12/31 08:22:00;;;;;;;13.80;12.45;;;;;;;;;;5121643;28;20907;-80
2023/12/31 08:24:26;;;;;;;12.38;11.20;;;;;;;;;;5121918;28;20376;-80
2023/12/31 08:26:52;;;;;;;9.80;9.00;;;;;;;;;;5120038;28;20376;-79
2023/12/31 08:29:18;;;;;;;10.30;9.33;;;;;;;;;;5120527;28;20381;-80
2023/12/31 08:31:52;;;;;;;10.00;9.10;;;;;;;;;;5123426;28;20402;-79
2023/12/31 08:34:18;;;;;;;10.50;9.60;;;;;;;;;;5121989;28;20484;-80
2023/12/31 08:36:44;;;;;;;10.70;9.80;;;;;;;;;;5121965;28;20466;-80
2023/12/31 08:39:10;;;;;;;9.17;8.37;;;;;;;;;;5123083;28;20453;-81
2023/12/31 08:41:36;;;;;;;8.63;7.82;;;;;;;;;;5121195;28;20485;-79
2023/12/31 08:44:03;;;;;;;9.80;8.93;;;;;;;;;;5119785;28;20731;-81
2023/12/31 08:46:30;;;;;;;8.65;7.85;;;;;;;;;;5122015;28;20517;-81
2023/12/31 08:48:56;;;;;;;8.57;7.78;;;;;;;;;;5107377;28;20374;-80
2023/12/31 08:51:22;;;;;;;8.10;7.40;;;;;;;;;;5104391;28;20879;-80
2023/12/31 08:53:48;;;;;;;7.70;7.00;;;;;;;;;;5104339;28;20434;-81
2023/12/31 08:56:14;;;;;;;8.50;7.72;;;;;;;;;;5102283;28;20392;-79
2023/12/31 08:58:40;;;;;;;8.70;7.90;;;;;;;;;;5102925;28;20434;-80
2023/12/31 09:01:08;;;;;;;8.48;7.78;;;;;;;;;;5103352;28;20385;-79
2023/12/31 09:03:34;;;;;;;7.70;7.10;;;;;;;;;;5104332;28;20438;-80
2023/12/31 09:06:00;;;;;;;8.70;7.90;;;;;;;;;;5103499;28;20385;-79
2023/12/31 09:08:26;;;;;;;9.30;8.53;;;;;;;;;;5103183;28;20373;-79
2023/12/31 09:10:54;;;;;;;9.27;8.38;;;;;;;;;;5085680;28;20751;-80
2023/12/31 09:13:22;;;;;;;9.43;8.63;;;;;;;;;;5102697;28;20440;-80
2023/12/31 09:15:48;;;;;;;10.32;9.43;;;;;;;;;;5102342;28;20435;-80
2023/12/31 09:18:14;;;;;;;10.77;9.55;;;;;;;;;;5080459;28;20386;-81
2023/12/31 09:20:40;;;;;;;10.20;9.30;;;;;;;;;;5098015;28;20474;-80
2023/12/31 09:23:06;;;;;;;10.40;9.50;;;;;;;;;;5096303;28;20456;-79
2023/12/31 09:25:32;;;;;;;10.73;9.83;;;;;;;;;;5096344;28;20743;-81
2023/12/31 09:27:58;;;;;;;10.52;9.63;;;;;;;;;;5096324;28;20386;-81
2023/12/31 09:30:24;;;;;;;11.50;10.50;;;;;;;;;;5096388;28;20370;-79
2023/12/31 09:32:50;;;;;;;12.40;11.20;;;;;;;;;;5095599;28;20461;-79
2023/12/31 09:35:16;;;;;;;12.18;10.98;;;;;;;;;;5098098;28;20424;-79
2023/12/31 09:37:42;;;;;;;11.02;10.02;;;;;;;;;;5099253;28;20382;-81
2023/12/31 09:40:08;;;;;;;12.02;10.80;;;;;;;;;;5104659;28;20450;-81
2023/12/31 09:42:43;;;;;;;11.65;10.65;;;;;;;;;;5082918;28;20413;-81
2023/12/31 09:45:12;;;;;;;12.40;11.20;;;;;;;;;;5082081;28;20378;-80
2023/12/31 09:47:38;;;;;;;11.68;10.68;;;;;;;;;;5100550;28;20731;-79
2023/12/31 09:50:07;;;;;;;12.73;10.80;;;;;;;;;;5098895;28;20567;-79
2023/12/31 09:52:33;;;;;;;12.60;11.40;;;;;;;;;;5099292;28;20421;-80
2023/12/31 09:55:02;;;;;;;15.05;13.52;;;;;;;;;;5099364;28;20390;-80
2023/12/31 09:57:34;;;;;;;12.55;11.38;;;;;;;;;;5098165;28;20380;-79
2023/12/31 10:00:04;;;;;;;11.15;10.25;;;;;;;;;;5097756;28;20440;-80
2023/12/31 10:02:30;;;;;;;11.10;10.15;;;;;;;;;;5098555;28;20424;-80
2023/12/31 10:04:56;;;;;;;12.73;11.48;;;;;;;;;;5101279;28;20380;-80
2023/12/31 10:07:22;;;;;;;12.32;11.20;;;;;;;;;;5101379;28;20370;-81
2023/12/31 10:09:49;;;;;;;19.45;16.75;;;;;;;;;;5101400;28;20374;-80
2023/12/31 10:12:16;;;;;;;12.65;11.40;;;;;;;;;;5102009;28;20428;-79
2023/12/31 10:14:42;;;;;;;12.57;11.38;;;;;;;;;;5101982;28;20377;-79
2023/12/31 10:17:08;;;;;;;10.30;9.30;;;;;;;;;;5114887;28;20379;-80
2023/12/31 10:19:34;;;;;;;11.80;10.70;;;;;;;;;;5120939;28;20377;-79
2023/12/31 10:22:00;;;;;;;11.10;10.10;;;;;;;;;;5119795;28;20400;-79
2023/12/31 10:24:29;;;;;;;11.70;10.57;;;;;;;;;;5119521;28;20926;-79
2023/12/31 10:26:57;;;;;;;11.27;10.23;;;;;;;;;;5119961;28;20372;-80
2023/12/31 10:29:23;;;;;;;12.07;10.90;;;;;;;;;;5117814;28;20834;-80
2023/12/31 10:31:49;;;;;;;10.38;9.38;;;;;;;;;;5100357;28;20388;-79
2023/12/31 10:34:18;;;;;;;12.27;11.17;;;;;;;;;;5122780;28;20394;-80
2023/12/31 10:36:45;;;;;;;10.80;9.90;;;;;;;;;;5122419;28;20846;-80
2023/12/31 10:39:25;;;;;;;10.00;9.20;;;;;;;;;;5116852;28;20380;-80
2023/12/31 10:41:51;;;;;;;12.02;11.02;;;;;;;;;;5120759;28;20723;-81
2023/12/31 10:44:17;;;;;;;11.43;10.48;;;;;;;;;;5121378;28;20485;-79
2023/12/31 10:46:43;;;;;;;10.70;9.80;;;;;;;;;;5121035;28;20380;-79
2023/12/31 10:49:11;;;;;;;9.95;9.05;;;;;;;;;;5120112;28;20381;-80
2023/12/31 10:51:41;;;;;;;9.82;8.93;;;;;;;;;;5119377;28;20802;-81
2023/12/31 10:54:09;;;;;;;10.73;9.73;;;;;;;;;;5119785;28;20376;-79
2023/12/31 10:56:35;;;;;;;169.23;69.55;;;;;;;;;;5103009;28;20376;-80
2023/12/31 10:59:02;;;;;;;33.95;22.77;;;;;;;;;;5122446;28;20416;-80
2023/12/31 11:01:28;;;;;;;12.03;10.93;;;;;;;;;;5106932;28;20493;-81
2023/12/31 11:03:58;;;;;;;13.70;12.40;;;;;;;;;;5125640;28;20735;-80
2023/12/31 11:06:25;;;;;;;11.77;10.68;;;;;;;;;;5124732;28;20445;-79
2023/12/31 11:08:52;;;;;;;13.32;12.02;;;;;;;;;;5125217;28;20448;-80
2023/12/31 11:11:18;;;;;;;14.70;13.20;;;;;;;;;;5107319;28;20388;-80
2023/12/31 11:13:48;;;;;;;15.40;13.63;;;;;;;;;;5123458;28;20384;-80
2023/12/31 11:16:33;;;;;;;14.90;13.50;;;;;;;;;;5125689;28;20377;-80
2023/12/31 11:19:02;;;;;;;12.73;11.52;;;;;;;;;;5126893;28;20422;-81
2023/12/31 11:21:48;;;;;;;12.52;11.43;;;;;;;;;;5123916;28;20486;-80
2023/12/31 11:24:18;;;;;;;12.40;11.25;;;;;;;;;;5120757;28;20400;-80
2023/12/31 11:26:44;;;;;;;12.40;11.30;;;;;;;;;;5120281;28;20368;-81
2023/12/31 11:29:13;;;;;;;12.40;11.27;;;;;;;;;;5118879;28;20441;-80
2023/12/31 11:31:42;;;;;;;12.40;11.38;;;;;;;;;;5118246;28;20849;-80
2023/12/31 11:34:09;;;;;;;12.50;11.40;;;;;;;;;;5118476;28;20500;-81
2023/12/31 11:36:35;;;;;;;14.47;13.07;;;;;;;;;;5118353;28;20795;-80
2023/12/31 11:39:14;;;;;;;16.98;15.25;;;;;;;;;;5099908;28;20382;-80
2023/12/31 11:41:50;;;;;;;15.88;14.27;;;;;;;;;;5119084;28;20418;-81
2023/12/31 11:44:38;;;;;;;23.73;17.92;;;;;;;;;;5119706;28;20404;-80
2023/12/31 11:47:11;;;;;;;43.30;29.98;;;;;;;;;;5120225;28;20364;-80
2023/12/31 11:49:39;;;;;;;36.95;26.25;;;;;;;;;;5119667;28;20379;-80
2023/12/31 11:52:05;;;;;;;20.75;17.38;;;;;;;;;;5119427;28;20455;-80
2023/12/31 11:54:34;;;;;;;14.88;13.48;;;;;;;;;;5119439;28;20387;-79
2023/12/31 11:57:00;;;;;;;16.42;14.73;;;;;;;;;;5119466;28;20411;-79
2023/12/31 11:59:26;;;;;;;15.93;14.13;;;;;;;;;;5119892;28;20380;-80
2023/12/31 12:01:55;;;;;;;15.17;13.63;;;;;;;;;;5121851;28;20416;-79
2023/12/31 12:04:21;;;;;;;13.43;12.07;;;;;;;;;;5119344;28;20519;-80
2023/12/31 12:06:47;;;;;;;12.25;11.07;;;;;;;;;;5117118;28;20372;-80
2023/12/31 12:09:13;;;;;;;10.95;9.85;;;;;;;;;;5118912;28;20399;-78
2023/12/31 12:11:43;;;;;;;10.70;9.60;;;;;;;;;;5122624;28;20388;-82
2023/12/31 12:14:09;;;;;;;12.48;9.85;;;;;;;;;;5125328;28;20421;-80
2023/12/31 12:16:35;;;;;;;10.70;9.80;;;;;;;;;;5121390;28;20822;-80
2023/12/31 12:19:04;;;;;;;11.05;10.05;;;;;;;;;;5104493;28;20412;-80
2023/12/31 12:21:30;;;;;;;10.50;9.55;;;;;;;;;;5122406;28;20440;-79
2023/12/31 12:23:56;;;;;;;13.73;12.33;;;;;;;;;;5121870;28;20440;-79
2023/12/31 12:26:23;;;;;;;11.60;10.55;;;;;;;;;;5105557;28;20389;-80
2023/12/31 12:28:55;;;;;;;5.88;5.38;;;;;;;;;;5124221;28;20369;-83
2023/12/31 12:31:21;;;;;;;4.32;3.67;;;;;;;;;;5122838;28;20381;-82
2023/12/31 12:33:54;;;;;;;3.50;3.20;;;;;;;;;;5118483;28;20406;-82
2023/12/31 12:36:21;;;;;;;2.10;2.00;;;;;;;;;;5100853;28;20414;-83
2023/12/31 12:38:48;;;;;;;1.60;1.50;;;;;;;;;;5116921;28;20418;-83
2023/12/31 12:41:21;;;;;;;1.53;1.40;;;;;;;;;;5116163;28;20521;-82
2023/12/31 12:43:50;;;;;;;0.70;0.70;;;;;;;;;;5113578;28;20447;-82
2023/12/31 12:46:16;;;;;;;1.33;1.10;;;;;;;;;;5097894;28;20863;-82
2023/12/31 12:48:48;;;;;;;0.93;0.93;;;;;;;;;;5098775;28;20385;-84
2023/12/31 12:51:15;;;;;;;1.13;1.00;;;;;;;;;;5099294;28;20422;-82
2023/12/31 12:53:41;;;;;;;0.80;0.80;;;;;;;;;;5099101;28;20390;-82
2023/12/31 12:56:07;;;;;;;1.20;1.10;;;;;;;;;;5097813;28;20408;-83
2023/12/31 12:58:32;;;;;;;0.90;0.70;;;;;;;;;;5097237;28;20453;-82
2023/12/31 13:00:59;;;;;;;0.98;0.90;;;;;;;;;;5098666;28;20856;-83
2023/12/31 13:03:25;;;;;;;0.80;0.80;;;;;;;;;;5099763;28;20404;-82
2023/12/31 13:05:51;;;;;;;1.70;1.40;;;;;;;;;;5080877;28;20386;-82
2023/12/31 13:08:17;;;;;;;1.58;1.13;;;;;;;;;;5099470;28;20851;-83
2023/12/31 13:10:43;;;;;;;3.63;3.33;;;;;;;;;;5080152;28;20431;-82
2023/12/31 13:13:09;;;;;;;1.15;0.88;;;;;;;;;;5079281;28;20386;-82
2023/12/31 13:15:35;;;;;;;0.60;0.60;;;;;;;;;;5098244;28;20382;-83
2023/12/31 13:18:01;;;;;;;0.50;0.50;;;;;;;;;;5099370;28;20761;-82
2023/12/31 13:20:27;;;;;;;0.47;0.32;;;;;;;;;;5078100;28;20385;-82
2023/12/31 13:22:54;;;;;;;0.60;0.40;;;;;;;;;;5095995;28;20410;-82
2023/12/31 13:25:20;;;;;;;0.40;0.25;;;;;;;;;;5097436;28;20370;-82
2023/12/31 13:27:46;;;;;;;0.30;0.30;;;;;;;;;;5081340;28;20707;-82
2023/12/31 13:30:12;;;;;;;0.30;0.30;;;;;;;;;;5081817;28;20427;-82
2023/12/31 13:32:38;;;;;;;0.32;0.30;;;;;;;;;;5097925;28;20393;-83
2023/12/31 13:35:04;;;;;;;0.40;0.40;;;;;;;;;;5078593;28;20402;-82
2023/12/31 13:37:30;;;;;;;0.40;0.40;;;;;;;;;;5097485;28;20429;-83
2023/12/31 13:39:56;;;;;;;0.68;0.55;;;;;;;;;;5079649;28;20412;-82
2023/12/31 13:42:22;;;;;;;0.40;0.30;;;;;;;;;;5097472;28;20385;-82
2023/12/31 13:44:48;;;;;;;0.63;0.63;;;;;;;;;;5098311;28;20377;-82
2023/12/31 13:47:14;;;;;;;1.10;0.80;;;;;;;;;;5098295;28;20704;-82
2023/12/31 13:49:40;;;;;;;1.20;0.95;;;;;;;;;;5097925;28;20378;-82
2023/12/31 13:52:06;;;;;;;1.27;1.00;;;;;;;;;;5097543;28;20878;-82
2023/12/31 13:54:32;;;;;;;1.08;0.95;;;;;;;;;;5098424;28;20761;-81
2023/12/31 13:56:58;;;;;;;1.55;1.17;;;;;;;;;;5096431;28;20512;-81
2023/12/31 13:59:24;;;;;;;0.65;0.65;;;;;;;;;;5077959;28;20752;-82
2023/12/31 14:01:50;;;;;;;0.60;0.60;;;;;;;;;;5102082;28;20384;-81
2023/12/31 14:04:16;;;;;;;1.73;1.27;;;;;;;;;;5119153;28;20406;-82
2023/12/31 14:06:44;;;;;;;2.10;1.60;;;;;;;;;;5102061;28;20400;-83
2023/12/31 14:09:10;;;;;;;1.08;0.70;;;;;;;;;;5118503;28;20380;-81
2023/12/31 14:11:38;;;;;;;0.90;0.70;;;;;;;;;;5118766;28;20381;-82
2023/12/31 14:14:04;;;;;;;0.80;0.75;;;;;;;;;;5119490;28;20387;-81
2023/12/31 14:16:30;;;;;;;0.82;0.80;;;;;;;;;;5118358;28;20451;-83
2023/12/31 14:18:56;;;;;;;1.05;0.80;;;;;;;;;;5118248;28;20407;-82
2023/12/31 14:21:22;;;;;;;1.67;1.27;;;;;;;;;;5118724;28;20893;-82
2023/12/31 14:23:48;;;;;;;2.00;1.30;;;;;;;;;;5119390;28;20428;-82
2023/12/31 14:26:14;;;;;;;2.78;2.00;;;;;;;;;;5120002;28;20377;-82
2023/12/31 14:28:40;;;;;;;1.80;1.48;;;;;;;;;;5119532;28;20382;-81
2023/12/31 14:31:06;;;;;;;1.70;1.45;;;;;;;;;;5100890;28;20380;-81
2023/12/31 14:33:32;;;;;;;1.63;1.50;;;;;;;;;;5119439;28;20439;-82
2023/12/31 14:35:58;;;;;;;1.92;1.52;;;;;;;;;;5119039;28;20372;-81